FHV2 KRSW-KATL
Flight info
| Callsign | FHV2 |
|---|---|
| Flight time | 1h 16m |
| Altitude | 32000 |
| Route | CSHEL8 CAMJO LARZZ JJEDI4 |
| Aircraft | B739/M-SDE2E3FGHIRWXY/LB1 |
Departure
| Time | 2026-05-05 17:36 |
|---|---|
| Airport | Southwest Florida International Airport (KRSW) |
Arrival
| Time | 2026-05-05 18:52 |
|---|---|
| Airport | Hartsfield Jackson Atlanta International Airport (KATL) |
| Time | Latitude | Longitude | Altitude | Speed | Heading |
|---|---|---|---|---|---|
| 2026-05-05 17:14 | 26.52909 | -81.75454 | 43 ft | 0 kts | 278° |
| 2026-05-05 17:24 | 26.52909 | -81.75451 | 42 ft | 2 kts | 277° |
| 2026-05-05 17:24 | 26.52907 | -81.75431 | 42 ft | 3 kts | 266° |
| 2026-05-05 17:25 | 26.52910 | -81.75409 | 42 ft | 3 kts | 252° |
| 2026-05-05 17:25 | 26.52915 | -81.75395 | 43 ft | 3 kts | 243° |
| 2026-05-05 17:25 | 26.52929 | -81.75369 | 39 ft | 3 kts | 234° |
| 2026-05-05 17:25 | 26.52940 | -81.75351 | 38 ft | 3 kts | 250° |
| 2026-05-05 17:26 | 26.52943 | -81.75337 | 41 ft | 1 kts | 291° |
| 2026-05-05 17:26 | 26.52942 | -81.75335 | 42 ft | 0 kts | 293° |
| 2026-05-05 17:31 | 26.52944 | -81.75339 | 41 ft | 4 kts | 293° |
| 2026-05-05 17:31 | 26.52999 | -81.75356 | 43 ft | 14 kts | 1° |
| 2026-05-05 17:31 | 26.53132 | -81.75338 | 43 ft | 24 kts | 8° |
| 2026-05-05 17:32 | 26.53308 | -81.75370 | 43 ft | 26 kts | 325° |
| 2026-05-05 17:32 | 26.53428 | -81.75465 | 43 ft | 20 kts | 324° |
| 2026-05-05 17:32 | 26.53481 | -81.75581 | 44 ft | 17 kts | 268° |
| 2026-05-05 17:32 | 26.53486 | -81.75725 | 43 ft | 22 kts | 284° |
| 2026-05-05 17:33 | 26.53500 | -81.75903 | 42 ft | 24 kts | 241° |
| 2026-05-05 17:33 | 26.53405 | -81.76050 | 44 ft | 23 kts | 234° |
| 2026-05-05 17:33 | 26.53310 | -81.76195 | 42 ft | 24 kts | 234° |
| 2026-05-05 17:33 | 26.53203 | -81.76358 | 43 ft | 28 kts | 234° |
| 2026-05-05 17:34 | 26.53081 | -81.76545 | 41 ft | 31 kts | 234° |
| 2026-05-05 17:34 | 26.52961 | -81.76732 | 43 ft | 29 kts | 234° |
| 2026-05-05 17:34 | 26.52847 | -81.76906 | 44 ft | 27 kts | 234° |
| 2026-05-05 17:34 | 26.52750 | -81.77041 | 41 ft | 16 kts | 202° |
| 2026-05-05 17:35 | 26.52672 | -81.76976 | 44 ft | 15 kts | 87° |
| 2026-05-05 17:35 | 26.52744 | -81.76856 | 44 ft | 33 kts | 54° |
| 2026-05-05 17:35 | 26.53023 | -81.76427 | 40 ft | 102 kts | 54° |
| 2026-05-05 17:35 | 26.53554 | -81.75610 | 43 ft | 156 kts | 54° |
| 2026-05-05 17:36 | 26.54253 | -81.74523 | 310 ft | 177 kts | 54° |
| 2026-05-05 17:36 | 26.54990 | -81.73398 | 947 ft | 183 kts | 54° |
| 2026-05-05 17:36 | 26.55737 | -81.72256 | 1659 ft | 183 kts | 54° |
| 2026-05-05 17:36 | 26.56573 | -81.71091 | 2057 ft | 202 kts | 41° |
| 2026-05-05 17:37 | 26.57916 | -81.70539 | 2287 ft | 225 kts | 1° |
| 2026-05-05 17:37 | 26.59004 | -81.70639 | 2482 ft | 238 kts | 354° |
| 2026-05-05 17:37 | 26.61238 | -81.70915 | 3035 ft | 256 kts | 355° |
| 2026-05-05 17:37 | 26.63053 | -81.71120 | 3525 ft | 266 kts | 355° |
| 2026-05-05 17:38 | 26.64903 | -81.71312 | 4277 ft | 268 kts | 355° |
| 2026-05-05 17:38 | 26.66770 | -81.71497 | 5076 ft | 270 kts | 355° |
| 2026-05-05 17:38 | 26.68655 | -81.71672 | 5789 ft | 273 kts | 355° |
| 2026-05-05 17:38 | 26.70561 | -81.71840 | 6534 ft | 276 kts | 355° |
| 2026-05-05 17:39 | 26.72493 | -81.72007 | 7173 ft | 280 kts | 354° |
| 2026-05-05 17:39 | 26.74449 | -81.72173 | 7865 ft | 283 kts | 354° |
| 2026-05-05 17:39 | 26.76417 | -81.72337 | 8578 ft | 284 kts | 354° |
| 2026-05-05 17:39 | 26.78398 | -81.72501 | 9282 ft | 287 kts | 354° |
| 2026-05-05 17:40 | 26.80407 | -81.72666 | 9925 ft | 292 kts | 353° |
| 2026-05-05 17:40 | 26.82465 | -81.72836 | 10343 ft | 305 kts | 353° |
| 2026-05-05 17:40 | 26.84627 | -81.73017 | 10498 ft | 326 kts | 353° |
| 2026-05-05 17:40 | 26.86991 | -81.73213 | 10652 ft | 346 kts | 353° |
| 2026-05-05 17:41 | 26.89423 | -81.73412 | 10784 ft | 364 kts | 354° |
| 2026-05-05 17:41 | 26.92010 | -81.73623 | 10934 ft | 380 kts | 354° |
| 2026-05-05 17:41 | 26.94674 | -81.73840 | 11305 ft | 386 kts | 353° |
| 2026-05-05 17:41 | 26.97363 | -81.74060 | 11864 ft | 387 kts | 353° |
| 2026-05-05 17:42 | 27.00056 | -81.74281 | 12394 ft | 389 kts | 353° |
| 2026-05-05 17:42 | 27.02757 | -81.74613 | 12896 ft | 389 kts | 346° |
| 2026-05-05 17:42 | 27.05367 | -81.75398 | 13426 ft | 389 kts | 340° |
| 2026-05-05 17:42 | 27.07954 | -81.76312 | 13956 ft | 390 kts | 339° |
| 2026-05-05 17:43 | 27.10550 | -81.77242 | 14371 ft | 392 kts | 339° |
| 2026-05-05 17:43 | 27.13155 | -81.78169 | 14800 ft | 394 kts | 339° |
| 2026-05-05 17:43 | 27.15739 | -81.79078 | 15277 ft | 394 kts | 340° |
| 2026-05-05 17:43 | 27.18362 | -81.79993 | 15716 ft | 395 kts | 340° |
| 2026-05-05 17:44 | 27.20991 | -81.80906 | 16137 ft | 396 kts | 340° |
| 2026-05-05 17:44 | 27.23632 | -81.81821 | 16551 ft | 398 kts | 340° |
| 2026-05-05 17:44 | 27.26282 | -81.82737 | 16946 ft | 399 kts | 340° |
| 2026-05-05 17:44 | 27.28950 | -81.83660 | 17351 ft | 401 kts | 339° |
| 2026-05-05 17:45 | 27.31620 | -81.84586 | 17762 ft | 402 kts | 339° |
| 2026-05-05 17:45 | 27.34292 | -81.85512 | 18135 ft | 403 kts | 339° |
| 2026-05-05 17:45 | 27.36976 | -81.86443 | 18471 ft | 405 kts | 339° |
| 2026-05-05 17:45 | 27.39675 | -81.87380 | 18770 ft | 406 kts | 339° |
| 2026-05-05 17:46 | 27.42386 | -81.88324 | 19084 ft | 408 kts | 339° |
| 2026-05-05 17:46 | 27.45103 | -81.89268 | 19386 ft | 409 kts | 339° |
| 2026-05-05 17:46 | 27.47803 | -81.90207 | 19686 ft | 410 kts | 339° |
| 2026-05-05 17:46 | 27.50532 | -81.91155 | 20004 ft | 411 kts | 339° |
| 2026-05-05 17:47 | 27.53270 | -81.92104 | 20271 ft | 412 kts | 339° |
| 2026-05-05 17:47 | 27.56023 | -81.93062 | 20459 ft | 415 kts | 339° |
| 2026-05-05 17:47 | 27.58785 | -81.94025 | 20778 ft | 415 kts | 339° |
| 2026-05-05 17:47 | 27.61539 | -81.94985 | 21162 ft | 413 kts | 339° |
| 2026-05-05 17:48 | 27.64285 | -81.95942 | 21471 ft | 414 kts | 339° |
| 2026-05-05 17:48 | 27.67041 | -81.96905 | 21720 ft | 416 kts | 339° |
| 2026-05-05 17:48 | 27.69816 | -81.97874 | 21945 ft | 418 kts | 339° |
| 2026-05-05 17:48 | 27.72598 | -81.98846 | 22170 ft | 420 kts | 339° |
| 2026-05-05 17:49 | 27.75401 | -81.99825 | 22434 ft | 420 kts | 339° |
| 2026-05-05 17:49 | 27.78198 | -82.00802 | 22687 ft | 421 kts | 339° |
| 2026-05-05 17:49 | 27.81006 | -82.01762 | 22913 ft | 423 kts | 339° |
| 2026-05-05 17:49 | 27.83829 | -82.02710 | 23133 ft | 424 kts | 339° |
| 2026-05-05 17:50 | 27.86666 | -82.03657 | 23336 ft | 425 kts | 339° |
| 2026-05-05 17:50 | 27.89510 | -82.04608 | 23545 ft | 427 kts | 339° |
| 2026-05-05 17:50 | 27.91394 | -82.05240 | 23680 ft | 427 kts | 339° |
| 2026-05-05 17:50 | 27.94248 | -82.06199 | 23852 ft | 428 kts | 339° |
| 2026-05-05 17:51 | 27.97107 | -82.07162 | 24020 ft | 429 kts | 339° |
| 2026-05-05 17:51 | 28.00907 | -82.08445 | 24236 ft | 430 kts | 339° |
| 2026-05-05 17:51 | 28.03776 | -82.09414 | 24394 ft | 431 kts | 339° |
| 2026-05-05 17:51 | 28.06652 | -82.10382 | 24572 ft | 432 kts | 339° |
| 2026-05-05 17:52 | 28.08590 | -82.10933 | 24674 ft | 435 kts | 343° |
| 2026-05-05 17:52 | 28.11619 | -82.11372 | 24826 ft | 441 kts | 350° |
| 2026-05-05 17:52 | 28.14683 | -82.11641 | 24983 ft | 442 kts | 350° |
| 2026-05-05 17:52 | 28.17754 | -82.11902 | 25136 ft | 442 kts | 350° |
| 2026-05-05 17:53 | 28.20834 | -82.12172 | 25284 ft | 443 kts | 350° |
| 2026-05-05 17:53 | 28.23912 | -82.12454 | 25417 ft | 444 kts | 350° |
| 2026-05-05 17:53 | 28.26998 | -82.12746 | 25571 ft | 445 kts | 349° |
| 2026-05-05 17:53 | 28.30083 | -82.13043 | 25714 ft | 445 kts | 349° |
| 2026-05-05 17:54 | 28.33178 | -82.13344 | 25849 ft | 446 kts | 349° |
| 2026-05-05 17:54 | 28.36277 | -82.13646 | 25929 ft | 448 kts | 349° |
| 2026-05-05 17:54 | 28.39389 | -82.13948 | 26084 ft | 448 kts | 349° |
| 2026-05-05 17:54 | 28.42456 | -82.14245 | 26247 ft | 448 kts | 349° |
| 2026-05-05 17:55 | 28.45555 | -82.14569 | 26334 ft | 448 kts | 347° |
| 2026-05-05 17:55 | 28.48601 | -82.15241 | 26389 ft | 444 kts | 340° |
| 2026-05-05 17:55 | 28.51502 | -82.16384 | 26537 ft | 439 kts | 333° |
| 2026-05-05 17:55 | 28.54299 | -82.17768 | 26747 ft | 438 kts | 332° |
| 2026-05-05 17:56 | 28.57083 | -82.19151 | 26985 ft | 436 kts | 332° |
| 2026-05-05 17:56 | 28.59864 | -82.20528 | 27175 ft | 436 kts | 332° |
| 2026-05-05 17:56 | 28.62647 | -82.21897 | 27362 ft | 436 kts | 332° |
| 2026-05-05 17:56 | 28.65427 | -82.23257 | 27582 ft | 435 kts | 332° |
| 2026-05-05 17:57 | 28.68211 | -82.24615 | 27831 ft | 434 kts | 332° |
| 2026-05-05 17:57 | 28.70981 | -82.25964 | 28092 ft | 432 kts | 332° |
| 2026-05-05 17:57 | 28.73745 | -82.27309 | 28344 ft | 431 kts | 332° |
| 2026-05-05 17:57 | 28.76504 | -82.28655 | 28607 ft | 431 kts | 332° |
| 2026-05-05 17:58 | 28.79258 | -82.29996 | 28913 ft | 429 kts | 332° |
| 2026-05-05 17:58 | 28.82006 | -82.31334 | 29209 ft | 428 kts | 332° |
| 2026-05-05 17:58 | 28.84741 | -82.32668 | 29521 ft | 427 kts | 332° |
| 2026-05-05 17:58 | 28.87471 | -82.34001 | 29834 ft | 426 kts | 332° |
| 2026-05-05 17:59 | 28.90191 | -82.35330 | 30142 ft | 425 kts | 332° |
| 2026-05-05 17:59 | 28.92899 | -82.36654 | 30438 ft | 423 kts | 332° |
| 2026-05-05 17:59 | 28.95561 | -82.37956 | 30752 ft | 420 kts | 332° |
| 2026-05-05 17:59 | 28.98242 | -82.39269 | 31134 ft | 416 kts | 332° |
| 2026-05-05 18:00 | 29.00895 | -82.40568 | 31530 ft | 413 kts | 332° |
| 2026-05-05 18:00 | 29.03520 | -82.41854 | 31957 ft | 408 kts | 332° |
| 2026-05-05 18:00 | 29.06139 | -82.43140 | 32058 ft | 410 kts | 332° |
| 2026-05-05 18:01 | 29.11406 | -82.45728 | 32095 ft | 413 kts | 332° |
| 2026-05-05 18:01 | 29.16712 | -82.48336 | 32087 ft | 417 kts | 332° |
| 2026-05-05 18:02 | 29.22065 | -82.50968 | 32084 ft | 419 kts | 332° |
| 2026-05-05 18:02 | 29.27622 | -82.53013 | 32090 ft | 429 kts | 344° |
| 2026-05-05 18:03 | 29.33610 | -82.53794 | 32086 ft | 434 kts | 347° |
| 2026-05-05 18:03 | 29.39628 | -82.54503 | 32089 ft | 434 kts | 347° |
| 2026-05-05 18:04 | 29.45632 | -82.55235 | 32083 ft | 434 kts | 347° |
| 2026-05-05 18:04 | 29.51640 | -82.55987 | 32091 ft | 434 kts | 347° |
| 2026-05-05 18:05 | 29.57650 | -82.56744 | 32086 ft | 434 kts | 347° |
| 2026-05-05 18:05 | 29.63607 | -82.57495 | 32087 ft | 433 kts | 347° |
| 2026-05-05 18:06 | 29.69604 | -82.58251 | 32094 ft | 433 kts | 347° |
| 2026-05-05 18:06 | 29.75597 | -82.59008 | 32100 ft | 433 kts | 347° |
| 2026-05-05 18:07 | 29.81590 | -82.59766 | 32089 ft | 433 kts | 347° |
| 2026-05-05 18:07 | 29.87585 | -82.60525 | 32089 ft | 433 kts | 347° |
| 2026-05-05 18:08 | 29.93568 | -82.61284 | 32096 ft | 432 kts | 347° |
| 2026-05-05 18:08 | 29.99548 | -82.62042 | 32100 ft | 432 kts | 347° |
| 2026-05-05 18:09 | 30.05526 | -82.62802 | 32096 ft | 432 kts | 347° |
| 2026-05-05 18:09 | 30.11511 | -82.63566 | 32094 ft | 433 kts | 347° |
| 2026-05-05 18:10 | 30.17457 | -82.64322 | 32093 ft | 432 kts | 347° |
| 2026-05-05 18:10 | 30.23444 | -82.65085 | 32095 ft | 432 kts | 347° |
| 2026-05-05 18:11 | 30.29420 | -82.65848 | 32098 ft | 432 kts | 347° |
| 2026-05-05 18:11 | 30.35389 | -82.66613 | 32115 ft | 432 kts | 347° |
| 2026-05-05 18:12 | 30.41361 | -82.67377 | 32123 ft | 431 kts | 347° |
| 2026-05-05 18:12 | 30.47328 | -82.68142 | 32145 ft | 431 kts | 347° |
| 2026-05-05 18:13 | 30.53285 | -82.68928 | 32154 ft | 430 kts | 346° |
| 2026-05-05 18:13 | 30.59211 | -82.69834 | 32160 ft | 429 kts | 345° |
| 2026-05-05 18:14 | 30.65129 | -82.70765 | 32157 ft | 429 kts | 345° |
| 2026-05-05 18:14 | 30.71007 | -82.71680 | 32142 ft | 429 kts | 346° |
| 2026-05-05 18:15 | 30.76929 | -82.72594 | 32128 ft | 429 kts | 346° |
| 2026-05-05 18:15 | 30.82840 | -82.73505 | 32112 ft | 429 kts | 346° |
| 2026-05-05 18:16 | 30.88752 | -82.74416 | 32105 ft | 429 kts | 346° |
| 2026-05-05 18:16 | 30.94672 | -82.75329 | 32085 ft | 428 kts | 345° |
| 2026-05-05 18:17 | 31.00586 | -82.76242 | 32097 ft | 428 kts | 345° |
| 2026-05-05 18:17 | 31.06495 | -82.77155 | 32089 ft | 428 kts | 345° |
| 2026-05-05 18:18 | 31.12404 | -82.78073 | 32090 ft | 428 kts | 345° |
| 2026-05-05 18:18 | 31.18275 | -82.78984 | 32089 ft | 428 kts | 346° |
| 2026-05-05 18:19 | 31.24188 | -82.79902 | 32087 ft | 428 kts | 345° |
| 2026-05-05 18:19 | 31.30087 | -82.80822 | 32094 ft | 428 kts | 345° |
| 2026-05-05 18:20 | 31.35995 | -82.81741 | 32100 ft | 429 kts | 345° |
| 2026-05-05 18:20 | 31.41908 | -82.82662 | 32106 ft | 428 kts | 345° |
| 2026-05-05 18:21 | 31.47829 | -82.83586 | 32107 ft | 429 kts | 345° |
| 2026-05-05 18:21 | 31.53762 | -82.84516 | 32104 ft | 430 kts | 345° |
| 2026-05-05 18:22 | 31.59698 | -82.85445 | 32102 ft | 430 kts | 345° |
| 2026-05-05 18:22 | 31.65627 | -82.86377 | 32104 ft | 430 kts | 345° |
| 2026-05-05 18:23 | 31.71575 | -82.87307 | 32085 ft | 431 kts | 345° |
| 2026-05-05 18:23 | 31.77503 | -82.88236 | 32084 ft | 430 kts | 345° |
| 2026-05-05 18:24 | 31.83434 | -82.89168 | 32081 ft | 430 kts | 345° |
| 2026-05-05 18:24 | 31.89366 | -82.90105 | 32081 ft | 430 kts | 345° |
| 2026-05-05 18:25 | 31.95267 | -82.91038 | 32081 ft | 430 kts | 345° |
| 2026-05-05 18:25 | 32.01218 | -82.91976 | 32084 ft | 430 kts | 345° |
| 2026-05-05 18:26 | 32.07163 | -82.92915 | 32083 ft | 430 kts | 345° |
| 2026-05-05 18:26 | 32.13093 | -82.93853 | 32078 ft | 429 kts | 345° |
| 2026-05-05 18:27 | 32.19004 | -82.94791 | 32079 ft | 428 kts | 345° |
| 2026-05-05 18:27 | 32.24904 | -82.95729 | 32081 ft | 426 kts | 345° |
| 2026-05-05 18:28 | 32.33610 | -82.97114 | 32077 ft | 420 kts | 345° |
| 2026-05-05 18:28 | 32.36482 | -82.97755 | 31523 ft | 419 kts | 335° |
| 2026-05-05 18:28 | 32.39132 | -82.99139 | 30728 ft | 414 kts | 324° |
| 2026-05-05 18:29 | 32.41411 | -83.01154 | 30149 ft | 405 kts | 317° |
| 2026-05-05 18:29 | 32.43523 | -83.03340 | 29407 ft | 402 kts | 315° |
| 2026-05-05 18:29 | 32.45597 | -83.05541 | 28771 ft | 397 kts | 315° |
| 2026-05-05 18:29 | 32.47644 | -83.07708 | 28173 ft | 393 kts | 316° |
| 2026-05-05 18:30 | 32.49680 | -83.09840 | 27562 ft | 389 kts | 316° |
| 2026-05-05 18:30 | 32.51688 | -83.11925 | 26980 ft | 386 kts | 316° |
| 2026-05-05 18:30 | 32.53726 | -83.14033 | 26395 ft | 382 kts | 316° |
| 2026-05-05 18:30 | 32.55697 | -83.16068 | 25847 ft | 379 kts | 316° |
| 2026-05-05 18:31 | 32.57679 | -83.18115 | 25240 ft | 378 kts | 316° |
| 2026-05-05 18:31 | 32.59659 | -83.20161 | 24698 ft | 375 kts | 316° |
| 2026-05-05 18:31 | 32.61620 | -83.22192 | 24129 ft | 374 kts | 315° |
| 2026-05-05 18:31 | 32.63574 | -83.24221 | 23546 ft | 373 kts | 315° |
| 2026-05-05 18:32 | 32.65526 | -83.26249 | 22894 ft | 371 kts | 316° |
| 2026-05-05 18:32 | 32.67463 | -83.28261 | 22300 ft | 369 kts | 316° |
| 2026-05-05 18:32 | 32.69386 | -83.30260 | 21737 ft | 366 kts | 316° |
| 2026-05-05 18:32 | 32.71298 | -83.32248 | 21193 ft | 364 kts | 316° |
| 2026-05-05 18:33 | 32.73195 | -83.34222 | 20660 ft | 361 kts | 316° |
| 2026-05-05 18:33 | 32.75080 | -83.36186 | 20130 ft | 359 kts | 316° |
| 2026-05-05 18:33 | 32.76954 | -83.38140 | 19607 ft | 358 kts | 316° |
| 2026-05-05 18:33 | 32.78817 | -83.40083 | 19091 ft | 356 kts | 316° |
| 2026-05-05 18:34 | 32.80680 | -83.42027 | 18542 ft | 356 kts | 316° |
| 2026-05-05 18:34 | 32.82513 | -83.43940 | 18007 ft | 354 kts | 316° |
| 2026-05-05 18:34 | 32.84363 | -83.45871 | 17452 ft | 352 kts | 316° |
| 2026-05-05 18:34 | 32.86198 | -83.47788 | 16936 ft | 350 kts | 316° |
| 2026-05-05 18:35 | 32.88020 | -83.49695 | 16394 ft | 349 kts | 316° |
| 2026-05-05 18:35 | 32.89842 | -83.51603 | 15890 ft | 347 kts | 316° |
| 2026-05-05 18:35 | 32.91644 | -83.53487 | 15637 ft | 338 kts | 316° |
| 2026-05-05 18:35 | 32.93381 | -83.55305 | 15486 ft | 327 kts | 316° |
| 2026-05-05 18:36 | 32.95064 | -83.57066 | 15235 ft | 320 kts | 316° |
| 2026-05-05 18:36 | 32.96736 | -83.58817 | 14809 ft | 319 kts | 316° |
| 2026-05-05 18:36 | 32.98401 | -83.60559 | 14408 ft | 318 kts | 316° |
| 2026-05-05 18:36 | 33.00056 | -83.62294 | 13993 ft | 317 kts | 316° |
| 2026-05-05 18:37 | 33.01712 | -83.64031 | 13545 ft | 317 kts | 316° |
| 2026-05-05 18:37 | 33.03361 | -83.65761 | 13105 ft | 316 kts | 316° |
| 2026-05-05 18:37 | 33.05004 | -83.67484 | 12674 ft | 315 kts | 316° |
| 2026-05-05 18:37 | 33.06093 | -83.68628 | 12397 ft | 314 kts | 316° |
| 2026-05-05 18:38 | 33.07727 | -83.70346 | 11983 ft | 313 kts | 316° |
| 2026-05-05 18:38 | 33.09349 | -83.72051 | 11763 ft | 306 kts | 316° |
| 2026-05-05 18:38 | 33.10924 | -83.73703 | 11608 ft | 297 kts | 315° |
| 2026-05-05 18:38 | 33.12925 | -83.75807 | 11453 ft | 283 kts | 315° |
| 2026-05-05 18:39 | 33.13909 | -83.76843 | 11354 ft | 277 kts | 315° |
| 2026-05-05 18:39 | 33.15353 | -83.78367 | 11010 ft | 277 kts | 315° |
| 2026-05-05 18:39 | 33.16788 | -83.79886 | 10702 ft | 275 kts | 315° |
| 2026-05-05 18:39 | 33.18198 | -83.81376 | 10414 ft | 273 kts | 315° |
| 2026-05-05 18:40 | 33.19594 | -83.82886 | 10206 ft | 267 kts | 312° |
| 2026-05-05 18:40 | 33.20917 | -83.84445 | 9975 ft | 261 kts | 311° |
| 2026-05-05 18:40 | 33.22192 | -83.85980 | 9680 ft | 259 kts | 311° |
| 2026-05-05 18:40 | 33.23441 | -83.87487 | 9411 ft | 259 kts | 311° |
| 2026-05-05 18:41 | 33.24714 | -83.89013 | 9069 ft | 259 kts | 311° |
| 2026-05-05 18:41 | 33.25981 | -83.90530 | 8802 ft | 257 kts | 311° |
| 2026-05-05 18:41 | 33.27245 | -83.92041 | 8514 ft | 256 kts | 311° |
| 2026-05-05 18:41 | 33.28524 | -83.93567 | 7972 ft | 265 kts | 311° |
| 2026-05-05 18:42 | 33.29842 | -83.95140 | 7542 ft | 271 kts | 311° |
| 2026-05-05 18:42 | 33.31189 | -83.96746 | 7187 ft | 274 kts | 311° |
| 2026-05-05 18:42 | 33.32537 | -83.98359 | 6948 ft | 273 kts | 311° |
| 2026-05-05 18:42 | 33.33870 | -83.99957 | 6710 ft | 270 kts | 311° |
| 2026-05-05 18:43 | 33.35205 | -84.01557 | 6395 ft | 273 kts | 313° |
| 2026-05-05 18:43 | 33.36832 | -84.02731 | 6125 ft | 277 kts | 342° |
| 2026-05-05 18:43 | 33.38734 | -84.03006 | 5828 ft | 276 kts | 358° |
| 2026-05-05 18:43 | 33.40632 | -84.03019 | 5548 ft | 275 kts | 358° |
| 2026-05-05 18:44 | 33.42560 | -84.03042 | 5144 ft | 278 kts | 359° |
| 2026-05-05 18:44 | 33.44493 | -84.03065 | 4903 ft | 278 kts | 359° |
| 2026-05-05 18:44 | 33.46431 | -84.03096 | 4619 ft | 277 kts | 359° |
| 2026-05-05 18:44 | 33.48342 | -84.03152 | 4425 ft | 272 kts | 358° |
| 2026-05-05 18:45 | 33.50238 | -84.03217 | 4150 ft | 273 kts | 359° |
| 2026-05-05 18:45 | 33.52118 | -84.03264 | 4092 ft | 268 kts | 358° |
| 2026-05-05 18:45 | 33.53974 | -84.03352 | 4092 ft | 267 kts | 355° |
| 2026-05-05 18:45 | 33.55851 | -84.03477 | 4140 ft | 274 kts | 357° |
| 2026-05-05 18:46 | 33.57734 | -84.03923 | 4031 ft | 275 kts | 329° |
| 2026-05-05 18:46 | 33.59087 | -84.05445 | 4011 ft | 266 kts | 298° |
| 2026-05-05 18:46 | 33.59959 | -84.07326 | 4078 ft | 262 kts | 295° |
| 2026-05-05 18:46 | 33.60818 | -84.09268 | 4110 ft | 265 kts | 295° |
| 2026-05-05 18:47 | 33.61679 | -84.11243 | 4102 ft | 268 kts | 294° |
| 2026-05-05 18:47 | 33.62537 | -84.13224 | 4064 ft | 266 kts | 293° |
| 2026-05-05 18:47 | 33.63062 | -84.15266 | 4070 ft | 248 kts | 273° |
| 2026-05-05 18:47 | 33.63202 | -84.17258 | 4085 ft | 232 kts | 267° |
| 2026-05-05 18:48 | 33.63214 | -84.19145 | 4093 ft | 224 kts | 265° |
| 2026-05-05 18:48 | 33.63207 | -84.21012 | 4080 ft | 220 kts | 265° |
| 2026-05-05 18:48 | 33.63236 | -84.22797 | 4014 ft | 208 kts | 266° |
| 2026-05-05 18:48 | 33.63194 | -84.24487 | 3823 ft | 197 kts | 264° |
| 2026-05-05 18:49 | 33.63197 | -84.26095 | 3579 ft | 187 kts | 265° |
| 2026-05-05 18:49 | 33.63151 | -84.27640 | 3373 ft | 189 kts | 263° |
| 2026-05-05 18:49 | 33.63181 | -84.29225 | 3194 ft | 187 kts | 269° |
| 2026-05-05 18:49 | 33.63242 | -84.30839 | 2834 ft | 197 kts | 265° |
| 2026-05-05 18:50 | 33.63211 | -84.32434 | 2554 ft | 191 kts | 262° |
| 2026-05-05 18:50 | 33.63191 | -84.33947 | 2362 ft | 171 kts | 262° |
| 2026-05-05 18:50 | 33.63189 | -84.35299 | 2135 ft | 155 kts | 264° |
| 2026-05-05 18:50 | 33.63191 | -84.36592 | 1922 ft | 156 kts | 264° |
| 2026-05-05 18:51 | 33.63186 | -84.37867 | 1689 ft | 152 kts | 262° |
| 2026-05-05 18:51 | 33.63181 | -84.39143 | 1477 ft | 154 kts | 265° |
| 2026-05-05 18:51 | 33.63183 | -84.40435 | 1305 ft | 154 kts | 265° |
| 2026-05-05 18:51 | 33.63183 | -84.41690 | 1083 ft | 148 kts | 265° |
| 2026-05-05 18:52 | 33.63181 | -84.42864 | 1034 ft | 125 kts | 270° |
| 2026-05-05 18:52 | 33.63183 | -84.43721 | 1035 ft | 81 kts | 270° |
| 2026-05-05 18:52 | 33.63248 | -84.44207 | 1034 ft | 44 kts | 301° |
| 2026-05-05 18:52 | 33.63360 | -84.44523 | 1034 ft | 39 kts | 270° |
| 2026-05-05 18:53 | 33.63362 | -84.44829 | 1035 ft | 34 kts | 270° |
| 2026-05-05 18:53 | 33.63323 | -84.45094 | 1035 ft | 30 kts | 262° |
| 2026-05-05 18:53 | 33.63355 | -84.45289 | 1035 ft | 22 kts | 338° |
| 2026-05-05 18:53 | 33.63503 | -84.45295 | 1034 ft | 21 kts | 360° |
| 2026-05-05 18:54 | 33.63621 | -84.45247 | 1034 ft | 17 kts | 76° |
| 2026-05-05 18:54 | 33.63623 | -84.45103 | 1034 ft | 17 kts | 90° |
| 2026-05-05 18:54 | 33.63634 | -84.44917 | 1034 ft | 28 kts | 79° |
| 2026-05-05 18:54 | 33.63666 | -84.44687 | 1034 ft | 27 kts | 91° |
| 2026-05-05 18:55 | 33.63665 | -84.44449 | 1035 ft | 31 kts | 90° |
| 2026-05-05 18:55 | 33.63665 | -84.44161 | 1035 ft | 37 kts | 90° |
| 2026-05-05 18:55 | 33.63665 | -84.43861 | 1035 ft | 29 kts | 90° |
| 2026-05-05 18:55 | 33.63726 | -84.43724 | 1035 ft | 20 kts | 4° |
| 2026-05-05 18:56 | 33.63803 | -84.43723 | 1034 ft | 0 kts | 0° |
| 2026-05-05 18:56 | 33.63810 | -84.43723 | 1034 ft | 4 kts | 1° |
| 2026-05-05 18:56 | 33.63833 | -84.43691 | 1034 ft | 6 kts | 80° |
| 2026-05-05 18:56 | 33.63835 | -84.43646 | 1034 ft | 1 kts | 89° |
| 2026-05-05 18:57 | 33.63835 | -84.43644 | 1034 ft | 0 kts | 89° |